Time,TemperatureF,DewpointF,PressureIn,WindDirection,WindDirectionDegrees,WindSpeedMPH,WindSpeedGustMPH,Humidity,HourlyPrecipIn,Conditions,Clouds,dailyrainin,SolarRadiationWatts/m^2,SoftwareType,DateUTC
2013-07-18 00:02:00,74.3,73.0,30.13,ESE,117,0.0,0.0,95,0.00,,,0.00,0,weatherlink.com 1.10,2013-07-18 04:02:00,
2013-07-18 00:17:00,74.3,73.0,30.13,ESE,117,0.0,0.0,95,0.00,,,0.00,0,weatherlink.com 1.10,2013-07-18 04:17:00,
2013-07-18 00:32:00,74.0,73.0,30.14,ESE,117,0.0,0.0,95,0.00,,,0.00,0,weatherlink.com 1.10,2013-07-18 04:32:00,
2013-07-18 00:47:00,73.8,72.0,30.14,ESE,117,0.0,0.0,95,0.00,,,0.00,0,weatherlink.com 1.10,2013-07-18 04:47:00,
2013-07-18 01:02:00,73.6,72.0,30.14,ESE,117,0.0,0.0,95,0.00,,,0.00,0,weatherlink.com 1.10,2013-07-18 05:02:00,
2013-07-18 01:17:00,73.5,72.0,30.14,ESE,117,0.0,0.0,96,0.00,,,0.00,0,weatherlink.com 1.10,2013-07-18 05:17:00,
2013-07-18 01:32:00,73.4,72.0,30.13,ESE,117,0.0,0.0,96,0.00,,,0.00,0,weatherlink.com 1.10,2013-07-18 05:32:00,
2013-07-18 01:47:00,73.4,73.0,30.13,ESE,117,0.0,0.0,97,0.00,,,0.00,0,weatherlink.com 1.10,2013-07-18 05:47:00,
2013-07-18 02:03:00,73.3,72.0,30.13,ESE,117,0.0,0.0,97,0.00,,,0.00,0,weatherlink.com 1.10,2013-07-18 06:03:00,
2013-07-18 02:18:00,73.1,72.0,30.12,ESE,117,0.0,0.0,97,0.00,,,0.00,0,weatherlink.com 1.10,2013-07-18 06:18:00,
2013-07-18 02:33:00,72.9,72.0,30.12,ESE,117,0.0,0.0,97,0.00,,,0.00,0,weatherlink.com 1.10,2013-07-18 06:33:00,
2013-07-18 02:48:00,72.9,72.0,30.12,ESE,117,0.0,0.0,97,0.00,,,0.00,0,weatherlink.com 1.10,2013-07-18 06:48:00,
2013-07-18 03:03:00,73.0,72.0,30.11,ESE,117,0.0,0.0,97,0.00,,,0.00,0,weatherlink.com 1.10,2013-07-18 07:03:00,
2013-07-18 03:18:00,72.6,72.0,30.11,ESE,117,0.0,0.0,97,0.00,,,0.00,0,weatherlink.com 1.10,2013-07-18 07:18:00,
2013-07-18 03:33:00,72.5,72.0,30.11,ESE,117,0.0,0.0,97,0.00,,,0.00,0,weatherlink.com 1.10,2013-07-18 07:33:00,
2013-07-18 03:48:00,72.3,71.0,30.10,ESE,117,2.0,2.0,97,0.00,,,0.00,0,weatherlink.com 1.10,2013-07-18 07:48:00,
2013-07-18 04:03:00,72.6,72.0,30.11,ESE,117,0.0,0.0,98,0.00,,,0.00,0,weatherlink.com 1.10,2013-07-18 08:03:00,
2013-07-18 04:18:00,72.5,72.0,30.11,ESE,117,0.0,0.0,98,0.00,,,0.00,0,weatherlink.com 1.10,2013-07-18 08:18:00,
2013-07-18 04:33:00,72.6,72.0,30.11,ESE,117,0.0,0.0,98,0.00,,,0.00,0,weatherlink.com 1.10,2013-07-18 08:33:00,
2013-07-18 04:48:00,72.4,72.0,30.11,ESE,117,0.0,0.0,97,0.00,,,0.00,0,weatherlink.com 1.10,2013-07-18 08:48:00,
2013-07-18 05:03:00,72.2,71.0,30.12,ESE,117,0.0,0.0,97,0.00,,,0.00,0,weatherlink.com 1.10,2013-07-18 09:03:00,
2013-07-18 05:18:00,72.2,72.0,30.11,ESE,117,0.0,0.0,98,0.00,,,0.00,0,weatherlink.com 1.10,2013-07-18 09:18:00,
2013-07-18 05:33:00,72.0,71.0,30.11,ESE,117,0.0,0.0,98,0.00,,,0.00,0,weatherlink.com 1.10,2013-07-18 09:33:00,
2013-07-18 05:48:00,71.8,71.0,30.11,ESE,117,0.0,0.0,98,0.00,,,0.00,0,weatherlink.com 1.10,2013-07-18 09:48:00,
2013-07-18 06:03:00,71.7,71.0,30.12,ESE,117,0.0,0.0,98,0.00,,,0.00,0,weatherlink.com 1.10,2013-07-18 10:03:00,
2013-07-18 06:18:00,71.6,71.0,30.12,ESE,117,0.0,0.0,98,0.00,,,0.00,0,weatherlink.com 1.10,2013-07-18 10:18:00,
2013-07-18 06:33:00,71.3,71.0,30.12,ESE,117,0.0,0.0,98,0.00,,,0.00,0,weatherlink.com 1.10,2013-07-18 10:33:00,
2013-07-18 06:48:00,71.3,71.0,30.12,ESE,117,0.0,0.0,98,0.00,,,0.00,11,weatherlink.com 1.10,2013-07-18 10:48:00,
2013-07-18 07:03:00,71.4,71.0,30.12,ESE,117,0.0,0.0,98,0.00,,,0.00,30,weatherlink.com 1.10,2013-07-18 11:03:00,
2013-07-18 07:18:00,71.9,72.0,30.13,ESE,117,0.0,0.0,99,0.00,,,0.00,53,weatherlink.com 1.10,2013-07-18 11:18:00,
2013-07-18 07:33:00,72.7,72.0,30.13,ESE,117,0.0,0.0,99,0.00,,,0.00,81,weatherlink.com 1.10,2013-07-18 11:33:00,
2013-07-18 07:48:00,74.4,74.0,30.14,ESE,117,0.0,0.0,99,0.00,,,0.00,137,weatherlink.com 1.10,2013-07-18 11:48:00,
2013-07-18 08:03:00,75.6,75.0,30.14,ESE,117,0.0,0.0,99,0.00,,,0.00,153,weatherlink.com 1.10,2013-07-18 12:03:00,
2013-07-18 08:18:00,76.8,77.0,30.14,South,186,0.0,0.0,99,0.00,,,0.00,174,weatherlink.com 1.10,2013-07-18 12:18:00,
2013-07-18 08:33:00,77.0,76.0,30.13,SE,134,4.0,5.0,98,0.00,,,0.00,181,weatherlink.com 1.10,2013-07-18 12:33:00,
2013-07-18 08:48:00,78.2,76.0,30.14,ESE,113,0.0,4.0,92,0.00,,,0.00,206,weatherlink.com 1.10,2013-07-18 12:48:00,
2013-07-18 09:03:00,79.6,76.0,30.14,ESE,121,0.0,3.0,88,0.00,,,0.00,232,weatherlink.com 1.10,2013-07-18 13:03:00,
2013-07-18 09:18:00,80.8,76.0,30.14,ESE,121,1.0,4.0,84,0.00,,,0.00,306,weatherlink.com 1.10,2013-07-18 13:18:00,
2013-07-18 09:34:00,82.1,76.0,30.14,East,79,4.0,6.0,81,0.00,,,0.00,640,weatherlink.com 1.10,2013-07-18 13:34:00,
2013-07-18 09:49:00,83.8,76.0,30.14,East,89,1.0,7.0,76,0.00,,,0.00,580,weatherlink.com 1.10,2013-07-18 13:49:00,
2013-07-18 10:04:00,84.1,75.0,30.14,SE,134,5.0,7.0,75,0.00,,,0.00,299,weatherlink.com 1.10,2013-07-18 14:04:00,
2013-07-18 10:19:00,83.2,75.0,30.14,SE,138,3.0,8.0,77,0.00,,,0.00,262,weatherlink.com 1.10,2013-07-18 14:19:00,
2013-07-18 10:34:00,84.7,76.0,30.14,SSE,149,3.0,9.0,76,0.00,,,0.00,494,weatherlink.com 1.10,2013-07-18 14:34:00,
2013-07-18 10:49:00,85.3,77.0,30.14,East,90,7.0,9.0,76,0.00,,,0.00,837,weatherlink.com 1.10,2013-07-18 14:49:00,
2013-07-18 11:04:00,86.9,78.0,30.14,East,90,1.0,10.0,75,0.00,,,0.00,1023,weatherlink.com 1.10,2013-07-18 15:04:00,
2013-07-18 11:19:00,86.7,77.0,30.14,ENE,64,2.0,10.0,72,0.00,,,0.00,974,weatherlink.com 1.10,2013-07-18 15:19:00,
2013-07-18 11:34:00,88.1,77.0,30.15,SSE,159,2.0,9.0,70,0.00,,,0.00,970,weatherlink.com 1.10,2013-07-18 15:34:00,
2013-07-18 11:49:00,87.4,75.0,30.14,East,88,4.0,11.0,67,0.00,,,0.00,1037,weatherlink.com 1.10,2013-07-18 15:49:00,
2013-07-18 12:04:00,87.6,76.0,30.14,NE,38,4.0,10.0,69,0.00,,,0.00,1020,weatherlink.com 1.10,2013-07-18 16:04:00,
2013-07-18 12:19:00,88.1,76.0,30.14,SE,132,2.0,8.0,67,0.00,,,0.00,1046,weatherlink.com 1.10,2013-07-18 16:19:00,
2013-07-18 12:34:00,88.9,75.0,30.14,ESE,108,2.0,11.0,64,0.00,,,0.00,1048,weatherlink.com 1.10,2013-07-18 16:34:00,
2013-07-18 12:49:00,89.1,75.0,30.14,East,97,8.0,9.0,63,0.00,,,0.00,1072,weatherlink.com 1.10,2013-07-18 16:49:00,
2013-07-18 13:04:00,87.9,75.0,30.14,SE,133,7.0,11.0,66,0.00,,,0.00,325,weatherlink.com 1.10,2013-07-18 17:04:00,
2013-07-18 13:19:00,86.1,73.0,30.14,SE,146,5.0,9.0,66,0.00,,,0.00,555,weatherlink.com 1.10,2013-07-18 17:19:00,
2013-07-18 13:34:00,86.9,75.0,30.14,SE,134,1.0,9.0,68,0.00,,,0.00,933,weatherlink.com 1.10,2013-07-18 17:34:00,
2013-07-18 13:49:00,88.3,76.0,30.13,SE,132,5.0,7.0,66,0.00,,,0.00,1132,weatherlink.com 1.10,2013-07-18 17:49:00,
2013-07-18 14:04:00,88.6,75.0,30.12,SSE,157,8.0,10.0,64,0.00,,,0.00,327,weatherlink.com 1.10,2013-07-18 18:04:00,
2013-07-18 14:19:00,86.3,75.0,30.12,SSE,153,3.0,9.0,68,0.00,,,0.00,362,weatherlink.com 1.10,2013-07-18 18:19:00,
2013-07-18 14:34:00,87.4,77.0,30.12,ENE,57,3.0,9.0,70,0.00,,,0.00,617,weatherlink.com 1.10,2013-07-18 18:34:00,
2013-07-18 14:49:00,86.1,76.0,30.12,SE,134,4.0,9.0,71,0.00,,,0.00,367,weatherlink.com 1.10,2013-07-18 18:49:00,
2013-07-18 15:04:00,85.8,76.0,30.11,East,96,0.0,9.0,72,0.00,,,0.00,394,weatherlink.com 1.10,2013-07-18 19:04:00,
2013-07-18 15:19:00,85.8,76.0,30.11,East,79,2.0,9.0,72,0.00,,,0.00,547,weatherlink.com 1.10,2013-07-18 19:19:00,
2013-07-18 15:34:00,86.3,76.0,30.10,East,90,6.0,9.0,72,0.00,,,0.00,686,weatherlink.com 1.10,2013-07-18 19:34:00,
2013-07-18 15:49:00,87.6,76.0,30.10,NE,46,6.0,10.0,68,0.00,,,0.00,371,weatherlink.com 1.10,2013-07-18 19:49:00,
2013-07-18 16:04:00,86.4,76.0,30.09,ENE,78,0.0,8.0,71,0.00,,,0.00,348,weatherlink.com 1.10,2013-07-18 20:04:00,
2013-07-18 16:19:00,86.5,77.0,30.09,East,101,4.0,10.0,73,0.00,,,0.00,742,weatherlink.com 1.10,2013-07-18 20:19:00,
2013-07-18 16:34:00,86.1,77.0,30.08,East,101,3.0,10.0,73,0.00,,,0.00,221,weatherlink.com 1.10,2013-07-18 20:34:00,
2013-07-18 16:49:00,85.0,75.0,30.08,ENE,76,4.0,8.0,71,0.00,,,0.00,738,weatherlink.com 1.10,2013-07-18 20:49:00,
2013-07-18 17:04:00,86.3,75.0,30.07,East,96,6.0,12.0,68,0.00,,,0.00,376,weatherlink.com 1.10,2013-07-18 21:04:00,
2013-07-18 17:19:00,87.0,77.0,30.07,NE,43,7.0,9.0,72,0.00,,,0.00,573,weatherlink.com 1.10,2013-07-18 21:19:00,
2013-07-18 17:34:00,86.8,76.0,30.07,East,85,2.0,10.0,69,0.00,,,0.00,524,weatherlink.com 1.10,2013-07-18 21:34:00,
2013-07-18 17:49:00,86.1,76.0,30.07,SE,129,3.0,11.0,71,0.00,,,0.00,471,weatherlink.com 1.10,2013-07-18 21:49:00,
2013-07-18 18:04:00,85.8,75.0,30.07,ESE,108,4.0,11.0,71,0.00,,,0.00,355,weatherlink.com 1.10,2013-07-18 22:04:00,
2013-07-18 18:19:00,85.7,76.0,30.07,East,80,9.0,9.0,72,0.00,,,0.00,381,weatherlink.com 1.10,2013-07-18 22:19:00,
2013-07-18 18:34:00,84.9,75.0,30.07,East,90,3.0,14.0,72,0.00,,,0.00,323,weatherlink.com 1.10,2013-07-18 22:34:00,
2013-07-18 18:49:00,84.4,75.0,30.07,East,91,2.0,10.0,74,0.00,,,0.00,271,weatherlink.com 1.10,2013-07-18 22:49:00,
2013-07-18 19:04:00,82.6,75.0,30.07,SSE,158,3.0,11.0,77,0.00,,,0.00,155,weatherlink.com 1.10,2013-07-18 23:04:00,
2013-07-18 19:19:00,82.4,75.0,30.07,ESE,112,2.0,7.0,78,0.00,,,0.00,137,weatherlink.com 1.10,2013-07-18 23:19:00,
2013-07-18 19:34:00,82.1,75.0,30.08,ESE,113,3.0,12.0,79,0.00,,,0.00,79,weatherlink.com 1.10,2013-07-18 23:34:00,
2013-07-18 19:49:00,81.5,75.0,30.08,ESE,123,5.0,9.0,80,0.00,,,0.00,32,weatherlink.com 1.10,2013-07-18 23:49:00,
2013-07-18 20:04:00,80.7,74.0,30.08,ESE,105,3.0,9.0,81,0.00,,,0.00,19,weatherlink.com 1.10,2013-07-19 00:04:00,
2013-07-18 20:19:00,80.2,74.0,30.08,East,97,0.0,8.0,81,0.00,,,0.00,9,weatherlink.com 1.10,2013-07-19 00:19:00,
2013-07-18 20:34:00,79.8,74.0,30.08,ESE,120,0.0,9.0,83,0.00,,,0.00,0,weatherlink.com 1.10,2013-07-19 00:34:00,
2013-07-18 20:50:00,79.5,74.0,30.08,ESE,120,0.0,3.0,84,0.00,,,0.00,0,weatherlink.com 1.10,2013-07-19 00:50:00,
2013-07-18 21:05:00,79.2,74.0,30.09,ESE,120,0.0,3.0,84,0.00,,,0.00,0,weatherlink.com 1.10,2013-07-19 01:05:00,
2013-07-18 21:20:00,78.8,74.0,30.09,ESE,120,0.0,0.0,85,0.00,,,0.00,0,weatherlink.com 1.10,2013-07-19 01:20:00,
2013-07-18 21:35:00,78.4,74.0,30.09,ESE,120,0.0,0.0,86,0.00,,,0.00,0,weatherlink.com 1.10,2013-07-19 01:35:00,
2013-07-18 21:50:00,78.0,74.0,30.09,ESE,120,0.0,1.0,86,0.00,,,0.00,0,weatherlink.com 1.10,2013-07-19 01:50:00,
2013-07-18 22:05:00,77.8,73.0,30.09,ESE,120,0.0,2.0,86,0.00,,,0.00,0,weatherlink.com 1.10,2013-07-19 02:05:00,
2013-07-18 22:20:00,77.6,73.0,30.10,ESE,120,0.0,0.0,86,0.00,,,0.00,0,weatherlink.com 1.10,2013-07-19 02:20:00,
2013-07-18 22:35:00,77.2,73.0,30.09,ESE,120,0.0,0.0,87,0.00,,,0.00,0,weatherlink.com 1.10,2013-07-19 02:35:00,
2013-07-18 22:50:00,76.7,73.0,30.09,ESE,120,0.0,0.0,88,0.00,,,0.00,0,weatherlink.com 1.10,2013-07-19 02:50:00,
2013-07-18 23:05:00,76.2,73.0,30.10,ESE,120,0.0,0.0,90,0.00,,,0.00,0,weatherlink.com 1.10,2013-07-19 03:05:00,
2013-07-18 23:20:00,75.8,73.0,30.09,ESE,120,0.0,0.0,91,0.00,,,0.00,0,weatherlink.com 1.10,2013-07-19 03:20:00,
2013-07-18 23:35:00,75.5,73.0,30.10,ESE,120,0.0,0.0,91,0.00,,,0.00,0,weatherlink.com 1.10,2013-07-19 03:35:00,
2013-07-18 23:50:00,75.3,73.0,30.09,ESE,120,0.0,1.0,93,0.00,,,0.00,0,weatherlink.com 1.10,2013-07-19 03:50:00,